sensor_id;sensor_type;location;lat;lon;timestamp;temperature;humidity
69054;DHT22;56125;52.242;4.756;2022-07-03T00:04:50;23.00;48.10
69054;DHT22;56125;52.242;4.756;2022-07-03T00:09:51;23.00;48.20
69054;DHT22;56125;52.242;4.756;2022-07-03T00:14:52;23.00;48.20
69054;DHT22;56125;52.242;4.756;2022-07-03T00:19:54;23.00;48.20
69054;DHT22;56125;52.242;4.756;2022-07-03T00:25:03;23.00;48.30
69054;DHT22;56125;52.242;4.756;2022-07-03T00:30:05;23.00;49.50
69054;DHT22;56125;52.242;4.756;2022-07-03T00:35:09;23.00;48.50
69054;DHT22;56125;52.242;4.756;2022-07-03T00:40:11;23.00;48.60
69054;DHT22;56125;52.242;4.756;2022-07-03T00:45:12;23.00;48.70
69054;DHT22;56125;52.242;4.756;2022-07-03T00:50:16;23.00;48.90
69054;DHT22;56125;52.242;4.756;2022-07-03T00:55:17;22.90;48.80
69054;DHT22;56125;52.242;4.756;2022-07-03T01:00:18;22.90;48.90
69054;DHT22;56125;52.242;4.756;2022-07-03T01:05:36;22.90;48.90
69054;DHT22;56125;52.242;4.756;2022-07-03T01:27:27;22.90;49.10
69054;DHT22;56125;52.242;4.756;2022-07-03T01:32:33;22.90;49.10
69054;DHT22;56125;52.242;4.756;2022-07-03T01:37:40;22.90;49.30
69054;DHT22;56125;52.242;4.756;2022-07-03T01:42:41;22.90;49.20
69054;DHT22;56125;52.242;4.756;2022-07-03T01:47:46;22.90;49.20
69054;DHT22;56125;52.242;4.756;2022-07-03T01:52:48;22.80;49.20
69054;DHT22;56125;52.242;4.756;2022-07-03T01:57:50;22.80;49.20
69054;DHT22;56125;52.242;4.756;2022-07-03T02:03:05;22.80;49.30
69054;DHT22;56125;52.242;4.756;2022-07-03T02:13:19;22.80;49.30
69054;DHT22;56125;52.242;4.756;2022-07-03T02:18:32;22.80;49.40
69054;DHT22;56125;52.242;4.756;2022-07-03T02:29:06;22.80;49.40
69054;DHT22;56125;52.242;4.756;2022-07-03T02:34:08;22.80;49.40
69054;DHT22;56125;52.242;4.756;2022-07-03T02:39:19;22.80;49.50
69054;DHT22;56125;52.242;4.756;2022-07-03T02:44:34;22.80;49.50
69054;DHT22;56125;52.242;4.756;2022-07-03T02:49:53;22.80;49.50
69054;DHT22;56125;52.242;4.756;2022-07-03T02:55:04;22.80;49.50
69054;DHT22;56125;52.242;4.756;2022-07-03T03:00:11;22.70;49.40
69054;DHT22;56125;52.242;4.756;2022-07-03T03:05:16;22.80;49.50
69054;DHT22;56125;52.242;4.756;2022-07-03T03:10:21;22.70;49.50
69054;DHT22;56125;52.242;4.756;2022-07-03T03:15:25;22.70;49.50
69054;DHT22;56125;52.242;4.756;2022-07-03T03:20:31;22.70;49.50
69054;DHT22;56125;52.242;4.756;2022-07-03T03:25:32;22.70;49.50
69054;DHT22;56125;52.242;4.756;2022-07-03T03:30:36;22.70;49.50
69054;DHT22;56125;52.242;4.756;2022-07-03T03:35:38;22.70;49.50
69054;DHT22;56125;52.242;4.756;2022-07-03T03:40:39;22.70;49.60
69054;DHT22;56125;52.242;4.756;2022-07-03T03:45:40;22.70;49.60
69054;DHT22;56125;52.242;4.756;2022-07-03T03:50:41;22.70;49.60
69054;DHT22;56125;52.242;4.756;2022-07-03T03:56:00;22.70;49.70
69054;DHT22;56125;52.242;4.756;2022-07-03T04:01:04;22.70;49.80
69054;DHT22;56125;52.242;4.756;2022-07-03T04:06:05;22.70;49.80
69054;DHT22;56125;52.242;4.756;2022-07-03T04:11:06;22.70;49.90
69054;DHT22;56125;52.242;4.756;2022-07-03T04:16:07;22.70;49.90
69054;DHT22;56125;52.242;4.756;2022-07-03T04:21:08;22.70;49.90
69054;DHT22;56125;52.242;4.756;2022-07-03T04:26:09;22.70;50.00
69054;DHT22;56125;52.242;4.756;2022-07-03T04:31:10;22.70;50.10
69054;DHT22;56125;52.242;4.756;2022-07-03T04:36:12;22.70;50.20
69054;DHT22;56125;52.242;4.756;2022-07-03T04:41:13;22.70;50.30
69054;DHT22;56125;52.242;4.756;2022-07-03T04:46:14;22.70;50.40
69054;DHT22;56125;52.242;4.756;2022-07-03T04:51:15;22.70;50.50
69054;DHT22;56125;52.242;4.756;2022-07-03T04:56:16;22.70;50.50
69054;DHT22;56125;52.242;4.756;2022-07-03T05:01:17;22.70;50.70
69054;DHT22;56125;52.242;4.756;2022-07-03T05:06:18;22.70;50.70
69054;DHT22;56125;52.242;4.756;2022-07-03T05:11:19;22.70;50.90
69054;DHT22;56125;52.242;4.756;2022-07-03T05:16:20;22.70;50.90
69054;DHT22;56125;52.242;4.756;2022-07-03T05:21:21;22.70;51.00
69054;DHT22;56125;52.242;4.756;2022-07-03T05:26:22;22.80;50.90
69054;DHT22;56125;52.242;4.756;2022-07-03T05:31:23;22.80;50.90
69054;DHT22;56125;52.242;4.756;2022-07-03T05:36:24;22.80;51.00
69054;DHT22;56125;52.242;4.756;2022-07-03T05:41:25;22.80;50.90
69054;DHT22;56125;52.242;4.756;2022-07-03T05:46:26;22.90;51.10
69054;DHT22;56125;52.242;4.756;2022-07-03T05:51:27;22.90;50.70
69054;DHT22;56125;52.242;4.756;2022-07-03T05:56:28;22.90;50.90
69054;DHT22;56125;52.242;4.756;2022-07-03T06:01:29;22.90;50.80
69054;DHT22;56125;52.242;4.756;2022-07-03T06:06:30;23.00;51.20
69054;DHT22;56125;52.242;4.756;2022-07-03T06:11:31;23.00;51.20
69054;DHT22;56125;52.242;4.756;2022-07-03T06:16:32;23.10;51.20
69054;DHT22;56125;52.242;4.756;2022-07-03T06:21:34;23.10;51.30
69054;DHT22;56125;52.242;4.756;2022-07-03T06:26:35;23.20;51.20
69054;DHT22;56125;52.242;4.756;2022-07-03T06:31:36;23.30;51.30
69054;DHT22;56125;52.242;4.756;2022-07-03T06:36:37;23.30;51.20
69054;DHT22;56125;52.242;4.756;2022-07-03T06:41:38;23.30;51.20
69054;DHT22;56125;52.242;4.756;2022-07-03T06:46:39;23.30;51.00
69054;DHT22;56125;52.242;4.756;2022-07-03T06:51:40;23.30;51.30
69054;DHT22;56125;52.242;4.756;2022-07-03T06:56:41;23.30;51.20
69054;DHT22;56125;52.242;4.756;2022-07-03T07:01:43;23.30;51.30
69054;DHT22;56125;52.242;4.756;2022-07-03T07:06:44;23.30;51.10
69054;DHT22;56125;52.242;4.756;2022-07-03T07:11:45;23.30;51.30
69054;DHT22;56125;52.242;4.756;2022-07-03T07:16:46;23.30;51.20
69054;DHT22;56125;52.242;4.756;2022-07-03T07:21:47;23.30;51.20
69054;DHT22;56125;52.242;4.756;2022-07-03T07:26:48;23.30;51.30
69054;DHT22;56125;52.242;4.756;2022-07-03T07:31:49;23.30;51.50
69054;DHT22;56125;52.242;4.756;2022-07-03T07:36:50;23.30;51.20
69054;DHT22;56125;52.242;4.756;2022-07-03T07:41:51;23.30;51.50
69054;DHT22;56125;52.242;4.756;2022-07-03T07:46:52;23.40;51.30
69054;DHT22;56125;52.242;4.756;2022-07-03T07:51:53;23.40;52.70
69054;DHT22;56125;52.242;4.756;2022-07-03T07:56:54;23.40;51.50
69054;DHT22;56125;52.242;4.756;2022-07-03T08:01:55;23.40;51.70
69054;DHT22;56125;52.242;4.756;2022-07-03T08:07:15;23.40;51.50
69054;DHT22;56125;52.242;4.756;2022-07-03T08:12:16;23.40;51.40
69054;DHT22;56125;52.242;4.756;2022-07-03T08:17:17;23.30;52.40
69054;DHT22;56125;52.242;4.756;2022-07-03T08:22:18;23.30;52.80
69054;DHT22;56125;52.242;4.756;2022-07-03T08:27:19;23.30;53.00
69054;DHT22;56125;52.242;4.756;2022-07-03T08:32:20;23.30;53.10
69054;DHT22;56125;52.242;4.756;2022-07-03T08:37:21;23.30;53.00
69054;DHT22;56125;52.242;4.756;2022-07-03T08:42:23;23.30;52.70
69054;DHT22;56125;52.242;4.756;2022-07-03T08:47:26;23.30;53.10
69054;DHT22;56125;52.242;4.756;2022-07-03T08:52:28;23.30;53.30
69054;DHT22;56125;52.242;4.756;2022-07-03T08:57:31;23.40;53.00
69054;DHT22;56125;52.242;4.756;2022-07-03T09:02:35;23.50;52.80
69054;DHT22;56125;52.242;4.756;2022-07-03T09:07:38;23.60;52.40
69054;DHT22;56125;52.242;4.756;2022-07-03T09:12:39;23.60;52.20
69054;DHT22;56125;52.242;4.756;2022-07-03T09:17:59;23.70;51.90
69054;DHT22;56125;52.242;4.756;2022-07-03T09:23:20;23.70;51.70
69054;DHT22;56125;52.242;4.756;2022-07-03T09:33:56;23.80;51.50
69054;DHT22;56125;52.242;4.756;2022-07-03T09:38:58;23.80;51.30
69054;DHT22;56125;52.242;4.756;2022-07-03T09:43:59;23.80;51.10
69054;DHT22;56125;52.242;4.756;2022-07-03T09:49:00;23.80;51.00
69054;DHT22;56125;52.242;4.756;2022-07-03T09:54:04;23.90;51.00
69054;DHT22;56125;52.242;4.756;2022-07-03T09:59:13;23.90;50.90
69054;DHT22;56125;52.242;4.756;2022-07-03T10:04:22;23.90;50.90
69054;DHT22;56125;52.242;4.756;2022-07-03T10:09:31;23.90;50.70
69054;DHT22;56125;52.242;4.756;2022-07-03T10:14:32;23.90;50.60
69054;DHT22;56125;52.242;4.756;2022-07-03T10:19:38;23.90;51.70
69054;DHT22;56125;52.242;4.756;2022-07-03T10:24:40;23.80;50.50
69054;DHT22;56125;52.242;4.756;2022-07-03T10:29:43;23.80;50.40
69054;DHT22;56125;52.242;4.756;2022-07-03T10:34:45;23.80;50.40
69054;DHT22;56125;52.242;4.756;2022-07-03T10:39:55;23.80;50.40
69054;DHT22;56125;52.242;4.756;2022-07-03T10:45:18;23.90;50.30
69054;DHT22;56125;52.242;4.756;2022-07-03T10:50:23;23.90;50.20
69054;DHT22;56125;52.242;4.756;2022-07-03T10:55:24;23.90;50.20
69054;DHT22;56125;52.242;4.756;2022-07-03T11:00:25;23.90;50.20
69054;DHT22;56125;52.242;4.756;2022-07-03T11:05:36;23.90;50.10
69054;DHT22;56125;52.242;4.756;2022-07-03T11:10:39;23.90;50.10
69054;DHT22;56125;52.242;4.756;2022-07-03T11:15:47;23.90;50.00
69054;DHT22;56125;52.242;4.756;2022-07-03T11:25:54;23.90;49.90
69054;DHT22;56125;52.242;4.756;2022-07-03T11:36:10;24.00;49.80
69054;DHT22;56125;52.242;4.756;2022-07-03T11:41:14;24.00;49.70
69054;DHT22;56125;52.242;4.756;2022-07-03T11:46:21;24.00;49.50
69054;DHT22;56125;52.242;4.756;2022-07-03T11:51:22;24.00;49.50
69054;DHT22;56125;52.242;4.756;2022-07-03T11:56:23;24.00;49.40
69054;DHT22;56125;52.242;4.756;2022-07-03T12:06:38;24.10;49.40
69054;DHT22;56125;52.242;4.756;2022-07-03T12:11:40;24.10;49.30
69054;DHT22;56125;52.242;4.756;2022-07-03T12:16:41;24.10;49.30
69054;DHT22;56125;52.242;4.756;2022-07-03T12:21:42;24.10;49.30
69054;DHT22;56125;52.242;4.756;2022-07-03T12:26:43;24.10;50.30
69054;DHT22;56125;52.242;4.756;2022-07-03T12:31:48;24.00;49.20
69054;DHT22;56125;52.242;4.756;2022-07-03T12:36:59;24.00;49.80
69054;DHT22;56125;52.242;4.756;2022-07-03T12:42:01;23.90;50.40
69054;DHT22;56125;52.242;4.756;2022-07-03T12:47:02;23.90;50.60
69054;DHT22;56125;52.242;4.756;2022-07-03T12:52:05;23.90;50.50
69054;DHT22;56125;52.242;4.756;2022-07-03T12:57:09;23.90;50.40
69054;DHT22;56125;52.242;4.756;2022-07-03T13:02:29;23.80;51.10
69054;DHT22;56125;52.242;4.756;2022-07-03T13:07:31;23.80;51.50
69054;DHT22;56125;52.242;4.756;2022-07-03T13:12:32;23.80;52.60
69054;DHT22;56125;52.242;4.756;2022-07-03T13:17:56;23.90;51.70
69054;DHT22;56125;52.242;4.756;2022-07-03T13:23:02;23.80;51.60
69054;DHT22;56125;52.242;4.756;2022-07-03T13:33:10;23.90;51.20
69054;DHT22;56125;52.242;4.756;2022-07-03T13:38:11;23.90;51.00
69054;DHT22;56125;52.242;4.756;2022-07-03T13:43:12;23.90;51.80
69054;DHT22;56125;52.242;4.756;2022-07-03T13:48:14;23.90;50.70
69054;DHT22;56125;52.242;4.756;2022-07-03T13:53:15;23.80;52.50
69054;DHT22;56125;52.242;4.756;2022-07-03T13:58:16;23.80;51.10
69054;DHT22;56125;52.242;4.756;2022-07-03T14:03:17;23.80;51.10
69054;DHT22;56125;52.242;4.756;2022-07-03T14:08:19;23.80;51.20
69054;DHT22;56125;52.242;4.756;2022-07-03T14:13:20;23.80;51.30
69054;DHT22;56125;52.242;4.756;2022-07-03T14:18:21;23.70;51.30
69054;DHT22;56125;52.242;4.756;2022-07-03T14:23:22;23.70;51.20
69054;DHT22;56125;52.242;4.756;2022-07-03T14:28:23;23.80;51.20
69054;DHT22;56125;52.242;4.756;2022-07-03T14:33:42;23.70;51.20
69054;DHT22;56125;52.242;4.756;2022-07-03T14:38:44;23.70;51.30
69054;DHT22;56125;52.242;4.756;2022-07-03T14:43:45;23.70;51.50
69054;DHT22;56125;52.242;4.756;2022-07-03T14:48:46;23.70;51.50
69054;DHT22;56125;52.242;4.756;2022-07-03T14:53:47;23.70;51.60
69054;DHT22;56125;52.242;4.756;2022-07-03T14:58:49;23.70;51.50
69054;DHT22;56125;52.242;4.756;2022-07-03T15:04:01;23.70;51.40
69054;DHT22;56125;52.242;4.756;2022-07-03T15:09:04;23.70;51.40
69054;DHT22;56125;52.242;4.756;2022-07-03T15:14:06;23.70;51.40
69054;DHT22;56125;52.242;4.756;2022-07-03T15:19:08;23.70;51.40
69054;DHT22;56125;52.242;4.756;2022-07-03T15:24:11;23.70;51.30
69054;DHT22;56125;52.242;4.756;2022-07-03T15:29:14;23.60;51.30
69054;DHT22;56125;52.242;4.756;2022-07-03T15:34:15;23.60;51.40
69054;DHT22;56125;52.242;4.756;2022-07-03T15:39:25;23.60;51.30
69054;DHT22;56125;52.242;4.756;2022-07-03T15:44:37;23.60;51.40
69054;DHT22;56125;52.242;4.756;2022-07-03T15:49:41;23.60;51.30
69054;DHT22;56125;52.242;4.756;2022-07-03T15:54:52;23.60;51.30
69054;DHT22;56125;52.242;4.756;2022-07-03T16:00:08;23.60;51.30
69054;DHT22;56125;52.242;4.756;2022-07-03T16:05:10;23.60;51.20
69054;DHT22;56125;52.242;4.756;2022-07-03T16:10:15;23.60;51.30
69054;DHT22;56125;52.242;4.756;2022-07-03T16:15:16;23.60;51.50
69054;DHT22;56125;52.242;4.756;2022-07-03T16:20:18;23.60;51.50
69054;DHT22;56125;52.242;4.756;2022-07-03T16:25:20;23.60;51.50
69054;DHT22;56125;52.242;4.756;2022-07-03T16:30:22;23.60;51.40
69054;DHT22;56125;52.242;4.756;2022-07-03T16:35:30;23.60;51.40
69054;DHT22;56125;52.242;4.756;2022-07-03T16:40:35;23.60;51.30
69054;DHT22;56125;52.242;4.756;2022-07-03T16:45:38;23.60;51.20
69054;DHT22;56125;52.242;4.756;2022-07-03T16:55:58;23.60;51.30
69054;DHT22;56125;52.242;4.756;2022-07-03T17:01:04;23.60;51.50
69054;DHT22;56125;52.242;4.756;2022-07-03T17:06:06;23.50;51.60
69054;DHT22;56125;52.242;4.756;2022-07-03T17:11:08;23.50;51.40
69054;DHT22;56125;52.242;4.756;2022-07-03T17:16:10;23.50;51.50
69054;DHT22;56125;52.242;4.756;2022-07-03T17:21:13;23.50;51.40
69054;DHT22;56125;52.242;4.756;2022-07-03T17:26:17;23.50;51.30
69054;DHT22;56125;52.242;4.756;2022-07-03T17:31:24;23.40;51.30
69054;DHT22;56125;52.242;4.756;2022-07-03T17:36:26;23.50;51.20
69054;DHT22;56125;52.242;4.756;2022-07-03T17:41:30;23.50;51.30
69054;DHT22;56125;52.242;4.756;2022-07-03T17:46:31;23.50;51.40
69054;DHT22;56125;52.242;4.756;2022-07-03T17:51:32;23.50;51.30
69054;DHT22;56125;52.242;4.756;2022-07-03T17:56:34;23.50;51.20
69054;DHT22;56125;52.242;4.756;2022-07-03T18:01:35;23.50;51.20
69054;DHT22;56125;52.242;4.756;2022-07-03T18:06:37;23.50;51.10
69054;DHT22;56125;52.242;4.756;2022-07-03T18:11:52;23.50;50.90
69054;DHT22;56125;52.242;4.756;2022-07-03T18:16:59;23.50;50.90
69054;DHT22;56125;52.242;4.756;2022-07-03T18:22:02;23.50;50.80
69054;DHT22;56125;52.242;4.756;2022-07-03T18:27:09;23.60;50.80
69054;DHT22;56125;52.242;4.756;2022-07-03T18:32:11;23.50;50.50
69054;DHT22;56125;52.242;4.756;2022-07-03T18:37:13;23.50;50.70
69054;DHT22;56125;52.242;4.756;2022-07-03T18:42:18;23.50;50.90
69054;DHT22;56125;52.242;4.756;2022-07-03T18:47:20;23.50;51.10
69054;DHT22;56125;52.242;4.756;2022-07-03T18:52:42;23.50;51.30
69054;DHT22;56125;52.242;4.756;2022-07-03T19:03:57;23.50;50.80
69054;DHT22;56125;52.242;4.756;2022-07-03T19:09:04;23.50;51.10
69054;DHT22;56125;52.242;4.756;2022-07-03T19:14:12;23.40;51.00
69054;DHT22;56125;52.242;4.756;2022-07-03T19:19:14;23.40;52.30
69054;DHT22;56125;52.242;4.756;2022-07-03T19:24:16;23.40;51.30
69054;DHT22;56125;52.242;4.756;2022-07-03T19:29:17;23.40;51.40
69054;DHT22;56125;52.242;4.756;2022-07-03T19:34:18;23.40;51.30
69054;DHT22;56125;52.242;4.756;2022-07-03T19:39:22;23.40;51.30
69054;DHT22;56125;52.242;4.756;2022-07-03T19:44:23;23.40;51.60
69054;DHT22;56125;52.242;4.756;2022-07-03T19:49:24;23.30;51.70
69054;DHT22;56125;52.242;4.756;2022-07-03T19:54:26;23.30;51.70
69054;DHT22;56125;52.242;4.756;2022-07-03T19:59:27;23.30;51.70
69054;DHT22;56125;52.242;4.756;2022-07-03T20:04:28;23.30;51.90
69054;DHT22;56125;52.242;4.756;2022-07-03T20:09:29;23.30;51.70
69054;DHT22;56125;52.242;4.756;2022-07-03T20:14:30;23.30;51.70
69054;DHT22;56125;52.242;4.756;2022-07-03T20:19:31;23.20;51.50
69054;DHT22;56125;52.242;4.756;2022-07-03T20:24:32;23.20;51.50
69054;DHT22;56125;52.242;4.756;2022-07-03T20:29:37;23.20;51.50
69054;DHT22;56125;52.242;4.756;2022-07-03T20:34:39;23.20;51.50
69054;DHT22;56125;52.242;4.756;2022-07-03T20:39:41;23.20;51.40
69054;DHT22;56125;52.242;4.756;2022-07-03T20:44:42;23.20;51.70
69054;DHT22;56125;52.242;4.756;2022-07-03T20:49:43;23.20;51.80
69054;DHT22;56125;52.242;4.756;2022-07-03T20:54:44;23.20;51.90
69054;DHT22;56125;52.242;4.756;2022-07-03T20:59:45;23.10;51.80
69054;DHT22;56125;52.242;4.756;2022-07-03T21:04:47;23.10;51.80
69054;DHT22;56125;52.242;4.756;2022-07-03T21:09:48;23.10;51.70
69054;DHT22;56125;52.242;4.756;2022-07-03T21:14:49;23.10;51.80
69054;DHT22;56125;52.242;4.756;2022-07-03T21:19:50;23.10;51.60
69054;DHT22;56125;52.242;4.756;2022-07-03T21:24:51;23.00;51.40
69054;DHT22;56125;52.242;4.756;2022-07-03T21:29:52;23.00;51.30
69054;DHT22;56125;52.242;4.756;2022-07-03T21:34:53;23.00;51.10
69054;DHT22;56125;52.242;4.756;2022-07-03T21:39:54;23.00;51.10
69054;DHT22;56125;52.242;4.756;2022-07-03T21:44:55;23.00;51.20
69054;DHT22;56125;52.242;4.756;2022-07-03T21:49:56;23.00;52.10
69054;DHT22;56125;52.242;4.756;2022-07-03T21:54:57;22.90;51.10
69054;DHT22;56125;52.242;4.756;2022-07-03T21:59:58;22.90;51.10
69054;DHT22;56125;52.242;4.756;2022-07-03T22:04:59;22.90;51.10
69054;DHT22;56125;52.242;4.756;2022-07-03T22:10:00;22.90;51.10
69054;DHT22;56125;52.242;4.756;2022-07-03T22:15:07;22.90;51.10
69054;DHT22;56125;52.242;4.756;2022-07-03T22:20:10;22.90;51.10
69054;DHT22;56125;52.242;4.756;2022-07-03T22:25:12;22.90;51.10
69054;DHT22;56125;52.242;4.756;2022-07-03T22:30:14;22.80;51.30
69054;DHT22;56125;52.242;4.756;2022-07-03T22:35:16;22.80;51.40
69054;DHT22;56125;52.242;4.756;2022-07-03T22:40:19;22.80;51.30
69054;DHT22;56125;52.242;4.756;2022-07-03T22:45:21;22.80;51.30
69054;DHT22;56125;52.242;4.756;2022-07-03T22:50:22;22.80;51.40
69054;DHT22;56125;52.242;4.756;2022-07-03T22:55:23;22.80;51.30
69054;DHT22;56125;52.242;4.756;2022-07-03T23:00:24;22.80;51.40
69054;DHT22;56125;52.242;4.756;2022-07-03T23:05:25;22.70;51.30
69054;DHT22;56125;52.242;4.756;2022-07-03T23:10:26;22.70;51.40
69054;DHT22;56125;52.242;4.756;2022-07-03T23:15:27;22.70;51.40
69054;DHT22;56125;52.242;4.756;2022-07-03T23:20:28;22.70;51.50
69054;DHT22;56125;52.242;4.756;2022-07-03T23:25:29;22.70;51.50
69054;DHT22;56125;52.242;4.756;2022-07-03T23:30:30;22.70;51.50
69054;DHT22;56125;52.242;4.756;2022-07-03T23:35:31;22.70;51.40
69054;DHT22;56125;52.242;4.756;2022-07-03T23:40:32;22.70;51.50
69054;DHT22;56125;52.242;4.756;2022-07-03T23:45:33;22.60;51.40
69054;DHT22;56125;52.242;4.756;2022-07-03T23:50:34;22.60;51.30
69054;DHT22;56125;52.242;4.756;2022-07-03T23:55:35;22.60;51.40
